Arlington, CO

1:50 AM MDT on August 02, 2014 (GMT -0600)
Pueblo Memorial (KPUB) Elev 4721 ft | 38.29 °N, 104.50 °W | Change Station

Current weather conditions updated 57 minutes ago

Clear
Clear
61 °F
Feels Like 61 °F
N
0
Wind Variable Wind from North

Today is forecast to be Warmer than yesterday.

Today
High -- | Low -- °F
--% Chance of Precip.
Yesterday
High -- | Low -- °F
Precip. -- in
5:56 AM 8:02 PM
Waxing Crescent, 33% visible
Pressure 30.09 in
Visibility 10.0 miles
Clouds Clear
Dew Point 57 °F
Humidity 87%
Rainfall 0.00 in
Snow Depth Not available.
UV 0 out of 12
Pollen 5.20 out of 12
Air Quality Not available.
Flu Activity Not available.
METAR KPUB 020653Z AUTO 00000KT 10SM CLR 16/14 A3025 RMK AO2 SLP189 T01610139 402610156

More Conditions Fewer Conditions

Pressure 30.09 in
Visibility 10.0 miles
Clouds Clear
Dew Point 57 °F
Humidity 87%
Rainfall 0.00 in
Snow Depth Not available.
UV 0 out of 12
Pollen 5.20 out of 12
Air Quality Not available.
Flu Activity Not available.
METAR KPUB 020653Z AUTO 00000KT 10SM CLR 16/14 A3025 RMK AO2 SLP189 T01610139 402610156

More Conditions Fewer Conditions

10-Day Weather Forecast

Almanac

Astronomy

Aug. 02, 2014 Rise Set
Actual Time 5:56 AM MDT 8:02 PM MDT
Civil Twilight 5:27 AM MDT 8:31 PM MDT
Nautical Twilight 4:51 AM MDT 9:07 PM MDT
Astronomical Twilight 4:12 AM MDT 9:46 PM MDT
Moon 12:14 PM MDT 11:28 PM MDT
Length of Visible Light 15h 04m
Length of Day
14h 05m
Tomorrow will be 1m 54s shorter.
Waxing Crescent, 33% of the Moon is Illuminated
Today
Waxing Crescent
Aug 3
First Quarter
Aug 10
Full
Aug 17
Last Quarter
Aug 25
New

Today's Extremes

State Highs State Lows

Community

WunderPhotos

Upload Photos

1,739,843 photos uploaded!

Nearby

Snow Depth

Station Depth Elevation
Apishapa 1 in 10000 ft
Medano Pass 0 in 9620 ft
South Colony 0 in 10800 ft
Ute Creek 0 in 10650 ft
Trinchera 2 in 10860 ft

Earthquake Activity

City Distance Mag. Time & Date
No recent earthquake activity has been reported nearby.
Minimum magnitude displayed is 2.5.

Coastal Water Temperatures

Place Temperature
No Stations Reporting

Nearby Weather Stations

Station Location Temp. Dew Point Humidity Wind Precip. Elev Updated Type
NE Crowley County, Sugar City, CO 60.5 °F 58 °F 92% SW  at  0.0 mph 0.00 in / hr 4590 ft 1:49 AM MDT Rapid Fire
The Ranch, Ordway, CO 60.1 °F 57 °F 90% South  at  0.0 mph 0.00 in / hr 5020 ft 1:39 AM MDT Normal

Show More Stations Show Fewer Stations